Terminal Aerodrome Forecast
Issued by NWS

Home | Current Version | Previous Version | Text Only | Print | Product List | Glossary On
Versions: 1 2 3 4 5 6 7 8 9 10 11 12 13 14 15 16 17 18 19 20 21 22 23 24 25 26 27 28 29 30 31 32 33 34 35 36 37 38
000
FTUS46 KOTX 220324 AAC
TAFSFF
TAF AMD
KSFF 220324Z 2203/2224 01012KT P6SM VCTS SCT060CB BKN090
     FM220400 06007KT P6SM FEW050 BKN100
     FM220700 VRB03KT P6SM VCSH SCT070 OVC120
     FM221200 05005KT P6SM SCT050 BKN080
     FM222200 05006KT P6SM VCTS SCT060CB BKN090=

USA.gov is the U.S. government's official web portal to all federal, state and local government web resources and services.